sensor_id;sensor_type;location;lat;lon;timestamp;temperature;humidity
47336;DHT22;33068;51.990;5.926;2022-12-18T00:01:15;-4.90;99.90
47336;DHT22;33068;51.990;5.926;2022-12-18T00:03:43;-4.70;99.90
47336;DHT22;33068;51.990;5.926;2022-12-18T00:06:10;-4.80;99.90
47336;DHT22;33068;51.990;5.926;2022-12-18T00:08:40;-4.80;99.90
47336;DHT22;33068;51.990;5.926;2022-12-18T00:11:08;-4.90;99.90
47336;DHT22;33068;51.990;5.926;2022-12-18T00:13:38;-4.70;99.90
47336;DHT22;33068;51.990;5.926;2022-12-18T00:16:07;-4.90;99.90
47336;DHT22;33068;51.990;5.926;2022-12-18T00:18:35;-5.00;99.90
47336;DHT22;33068;51.990;5.926;2022-12-18T00:21:05;-5.00;99.90
47336;DHT22;33068;51.990;5.926;2022-12-18T00:23:33;-5.00;99.90
47336;DHT22;33068;51.990;5.926;2022-12-18T00:26:01;-5.00;99.90
47336;DHT22;33068;51.990;5.926;2022-12-18T00:28:30;-5.00;99.90
47336;DHT22;33068;51.990;5.926;2022-12-18T00:31:01;-4.90;99.90
47336;DHT22;33068;51.990;5.926;2022-12-18T00:33:28;-4.90;99.90
47336;DHT22;33068;51.990;5.926;2022-12-18T00:36:00;-5.00;99.90
47336;DHT22;33068;51.990;5.926;2022-12-18T00:38:27;-5.00;99.90
47336;DHT22;33068;51.990;5.926;2022-12-18T00:40:55;-5.10;99.90
47336;DHT22;33068;51.990;5.926;2022-12-18T00:43:22;-5.00;99.90
47336;DHT22;33068;51.990;5.926;2022-12-18T00:45:48;-5.10;99.90
47336;DHT22;33068;51.990;5.926;2022-12-18T00:48:16;-5.10;99.90
47336;DHT22;33068;51.990;5.926;2022-12-18T00:50:44;-5.20;99.90
47336;DHT22;33068;51.990;5.926;2022-12-18T00:53:11;-5.10;99.90
47336;DHT22;33068;51.990;5.926;2022-12-18T00:55:39;-5.20;99.90
47336;DHT22;33068;51.990;5.926;2022-12-18T00:58:07;-5.20;99.90
47336;DHT22;33068;51.990;5.926;2022-12-18T01:00:35;-5.30;99.90
47336;DHT22;33068;51.990;5.926;2022-12-18T01:03:04;-5.40;99.90
47336;DHT22;33068;51.990;5.926;2022-12-18T01:05:32;-5.40;99.90
47336;DHT22;33068;51.990;5.926;2022-12-18T01:08:00;-5.50;99.90
47336;DHT22;33068;51.990;5.926;2022-12-18T01:10:27;-5.40;99.90
47336;DHT22;33068;51.990;5.926;2022-12-18T01:12:57;-5.30;99.90
47336;DHT22;33068;51.990;5.926;2022-12-18T01:15:24;-5.30;99.90
47336;DHT22;33068;51.990;5.926;2022-12-18T01:17:52;-5.40;99.90
47336;DHT22;33068;51.990;5.926;2022-12-18T01:20:19;-5.40;99.90
47336;DHT22;33068;51.990;5.926;2022-12-18T01:22:48;-5.40;99.90
47336;DHT22;33068;51.990;5.926;2022-12-18T01:25:15;-5.40;99.90
47336;DHT22;33068;51.990;5.926;2022-12-18T01:27:43;-5.40;99.90
47336;DHT22;33068;51.990;5.926;2022-12-18T01:30:10;-5.40;99.90
47336;DHT22;33068;51.990;5.926;2022-12-18T01:32:37;-5.40;99.90
47336;DHT22;33068;51.990;5.926;2022-12-18T01:35:06;-5.40;99.90
47336;DHT22;33068;51.990;5.926;2022-12-18T01:37:33;-5.50;99.90
47336;DHT22;33068;51.990;5.926;2022-12-18T01:40:01;-5.50;99.90
47336;DHT22;33068;51.990;5.926;2022-12-18T01:42:28;-5.50;99.90
47336;DHT22;33068;51.990;5.926;2022-12-18T01:45:09;-5.20;99.90
47336;DHT22;33068;51.990;5.926;2022-12-18T01:47:50;-5.60;99.90
47336;DHT22;33068;51.990;5.926;2022-12-18T01:50:23;-5.60;99.90
47336;DHT22;33068;51.990;5.926;2022-12-18T01:52:55;-5.60;99.90
47336;DHT22;33068;51.990;5.926;2022-12-18T01:55:24;-5.70;99.90
47336;DHT22;33068;51.990;5.926;2022-12-18T01:57:53;-5.60;99.90
47336;DHT22;33068;51.990;5.926;2022-12-18T02:00:22;-5.60;99.90
47336;DHT22;33068;51.990;5.926;2022-12-18T02:02:51;-5.60;99.90
47336;DHT22;33068;51.990;5.926;2022-12-18T02:05:25;-5.60;99.90
47336;DHT22;33068;51.990;5.926;2022-12-18T02:08:03;-5.50;99.90
47336;DHT22;33068;51.990;5.926;2022-12-18T02:10:44;-5.70;99.90
47336;DHT22;33068;51.990;5.926;2022-12-18T02:13:16;-5.70;99.90
47336;DHT22;33068;51.990;5.926;2022-12-18T02:15:53;-5.70;99.90
47336;DHT22;33068;51.990;5.926;2022-12-18T02:18:25;-5.70;99.90
47336;DHT22;33068;51.990;5.926;2022-12-18T02:20:58;-5.70;99.90
47336;DHT22;33068;51.990;5.926;2022-12-18T02:23:46;-5.80;99.90
47336;DHT22;33068;51.990;5.926;2022-12-18T02:26:19;-5.70;99.90
47336;DHT22;33068;51.990;5.926;2022-12-18T02:28:53;-5.70;99.90
47336;DHT22;33068;51.990;5.926;2022-12-18T02:31:25;-5.60;99.90
47336;DHT22;33068;51.990;5.926;2022-12-18T02:33:55;-5.70;99.90
47336;DHT22;33068;51.990;5.926;2022-12-18T02:36:24;-5.60;99.90
47336;DHT22;33068;51.990;5.926;2022-12-18T02:38:53;-5.60;99.90
47336;DHT22;33068;51.990;5.926;2022-12-18T02:41:26;-5.70;99.90
47336;DHT22;33068;51.990;5.926;2022-12-18T02:43:57;-5.70;99.90
47336;DHT22;33068;51.990;5.926;2022-12-18T02:46:28;-5.70;99.90
47336;DHT22;33068;51.990;5.926;2022-12-18T02:49:06;-5.60;99.90
47336;DHT22;33068;51.990;5.926;2022-12-18T02:51:39;-5.80;99.90
47336;DHT22;33068;51.990;5.926;2022-12-18T02:54:13;-5.90;99.90
47336;DHT22;33068;51.990;5.926;2022-12-18T02:56:48;-5.90;99.90
47336;DHT22;33068;51.990;5.926;2022-12-18T02:59:21;-5.90;99.90
47336;DHT22;33068;51.990;5.926;2022-12-18T03:01:58;-5.90;99.90
47336;DHT22;33068;51.990;5.926;2022-12-18T03:04:36;-5.90;99.90
47336;DHT22;33068;51.990;5.926;2022-12-18T03:07:11;-5.90;99.90
47336;DHT22;33068;51.990;5.926;2022-12-18T03:09:43;-5.90;99.90
47336;DHT22;33068;51.990;5.926;2022-12-18T03:12:17;-6.00;99.90
47336;DHT22;33068;51.990;5.926;2022-12-18T03:14:58;-5.90;99.90
47336;DHT22;33068;51.990;5.926;2022-12-18T03:17:30;-5.90;99.90
47336;DHT22;33068;51.990;5.926;2022-12-18T03:20:03;-5.90;99.90
47336;DHT22;33068;51.990;5.926;2022-12-18T03:22:33;-5.90;99.90
47336;DHT22;33068;51.990;5.926;2022-12-18T03:25:05;-5.90;99.90
47336;DHT22;33068;51.990;5.926;2022-12-18T03:27:37;-6.00;99.90
47336;DHT22;33068;51.990;5.926;2022-12-18T03:30:11;-5.90;99.90
47336;DHT22;33068;51.990;5.926;2022-12-18T03:32:42;-6.00;99.90
47336;DHT22;33068;51.990;5.926;2022-12-18T03:35:15;-6.00;99.90
47336;DHT22;33068;51.990;5.926;2022-12-18T03:37:44;-6.00;99.90
47336;DHT22;33068;51.990;5.926;2022-12-18T03:40:11;-6.10;99.90
47336;DHT22;33068;51.990;5.926;2022-12-18T03:42:46;-6.00;99.90
47336;DHT22;33068;51.990;5.926;2022-12-18T03:45:20;-6.00;99.90
47336;DHT22;33068;51.990;5.926;2022-12-18T03:47:58;-6.00;99.90
47336;DHT22;33068;51.990;5.926;2022-12-18T03:50:36;-6.00;99.90
47336;DHT22;33068;51.990;5.926;2022-12-18T03:53:13;-6.00;99.90
47336;DHT22;33068;51.990;5.926;2022-12-18T03:55:47;-6.00;99.90
47336;DHT22;33068;51.990;5.926;2022-12-18T03:58:19;-6.10;99.90
47336;DHT22;33068;51.990;5.926;2022-12-18T04:00:56;-6.10;99.90
47336;DHT22;33068;51.990;5.926;2022-12-18T04:03:27;-6.00;99.90
47336;DHT22;33068;51.990;5.926;2022-12-18T04:06:00;-6.00;99.90
47336;DHT22;33068;51.990;5.926;2022-12-18T04:08:29;-6.00;99.90
47336;DHT22;33068;51.990;5.926;2022-12-18T04:11:02;-6.00;99.90
47336;DHT22;33068;51.990;5.926;2022-12-18T04:13:33;-6.00;99.90
47336;DHT22;33068;51.990;5.926;2022-12-18T04:16:04;-6.00;99.90
47336;DHT22;33068;51.990;5.926;2022-12-18T04:18:32;-6.00;99.90
47336;DHT22;33068;51.990;5.926;2022-12-18T04:21:00;-6.00;99.90
47336;DHT22;33068;51.990;5.926;2022-12-18T04:23:27;-6.00;99.90
47336;DHT22;33068;51.990;5.926;2022-12-18T04:25:57;-6.00;99.90
47336;DHT22;33068;51.990;5.926;2022-12-18T04:28:48;-6.00;99.90
47336;DHT22;33068;51.990;5.926;2022-12-18T04:31:15;-6.00;99.90
47336;DHT22;33068;51.990;5.926;2022-12-18T04:33:43;-6.00;99.90
47336;DHT22;33068;51.990;5.926;2022-12-18T04:36:10;-5.90;99.90
47336;DHT22;33068;51.990;5.926;2022-12-18T04:38:38;-6.00;99.90
47336;DHT22;33068;51.990;5.926;2022-12-18T04:41:14;-6.00;99.90
47336;DHT22;33068;51.990;5.926;2022-12-18T04:43:43;-6.00;99.90
47336;DHT22;33068;51.990;5.926;2022-12-18T04:46:12;-5.90;99.90
47336;DHT22;33068;51.990;5.926;2022-12-18T04:48:40;-6.00;99.90
47336;DHT22;33068;51.990;5.926;2022-12-18T04:51:07;-5.90;99.90
47336;DHT22;33068;51.990;5.926;2022-12-18T04:53:37;-5.90;99.90
47336;DHT22;33068;51.990;5.926;2022-12-18T04:56:05;-5.90;99.90
47336;DHT22;33068;51.990;5.926;2022-12-18T04:58:33;-5.90;99.90
47336;DHT22;33068;51.990;5.926;2022-12-18T05:01:00;-5.90;99.90
47336;DHT22;33068;51.990;5.926;2022-12-18T05:03:30;-5.90;99.90
47336;DHT22;33068;51.990;5.926;2022-12-18T05:05:57;-6.00;99.90
47336;DHT22;33068;51.990;5.926;2022-12-18T05:08:25;-6.00;99.90
47336;DHT22;33068;51.990;5.926;2022-12-18T05:10:58;-6.00;99.90
47336;DHT22;33068;51.990;5.926;2022-12-18T05:13:25;-5.90;99.90
47336;DHT22;33068;51.990;5.926;2022-12-18T05:15:53;-5.90;99.90
47336;DHT22;33068;51.990;5.926;2022-12-18T05:18:20;-5.90;99.90
47336;DHT22;33068;51.990;5.926;2022-12-18T05:20:49;-6.00;99.90
47336;DHT22;33068;51.990;5.926;2022-12-18T05:23:17;-5.90;99.90
47336;DHT22;33068;51.990;5.926;2022-12-18T05:25:47;-5.90;99.90
47336;DHT22;33068;51.990;5.926;2022-12-18T05:28:14;-5.80;99.90
47336;DHT22;33068;51.990;5.926;2022-12-18T05:30:41;-5.90;99.90
47336;DHT22;33068;51.990;5.926;2022-12-18T05:33:08;-5.90;99.90
47336;DHT22;33068;51.990;5.926;2022-12-18T05:35:35;-5.90;99.90
47336;DHT22;33068;51.990;5.926;2022-12-18T05:38:03;-5.90;99.90
47336;DHT22;33068;51.990;5.926;2022-12-18T05:40:31;-5.90;99.90
47336;DHT22;33068;51.990;5.926;2022-12-18T05:42:57;-5.90;99.90
47336;DHT22;33068;51.990;5.926;2022-12-18T05:45:24;-5.90;99.90
47336;DHT22;33068;51.990;5.926;2022-12-18T05:47:52;-5.90;99.90
47336;DHT22;33068;51.990;5.926;2022-12-18T05:50:19;-5.90;99.90
47336;DHT22;33068;51.990;5.926;2022-12-18T05:52:46;-5.90;99.90
47336;DHT22;33068;51.990;5.926;2022-12-18T05:55:14;-5.90;99.90
47336;DHT22;33068;51.990;5.926;2022-12-18T05:57:42;-6.00;99.90
47336;DHT22;33068;51.990;5.926;2022-12-18T06:00:10;-5.80;99.90
47336;DHT22;33068;51.990;5.926;2022-12-18T06:02:40;-5.90;99.90
47336;DHT22;33068;51.990;5.926;2022-12-18T06:05:07;-5.90;99.90
47336;DHT22;33068;51.990;5.926;2022-12-18T06:07:34;-5.90;99.90
47336;DHT22;33068;51.990;5.926;2022-12-18T06:10:02;-5.90;99.90
47336;DHT22;33068;51.990;5.926;2022-12-18T06:12:30;-5.90;99.90
47336;DHT22;33068;51.990;5.926;2022-12-18T06:14:59;-5.80;99.90
47336;DHT22;33068;51.990;5.926;2022-12-18T06:17:28;-5.80;99.90
47336;DHT22;33068;51.990;5.926;2022-12-18T06:19:55;-5.80;99.90
47336;DHT22;33068;51.990;5.926;2022-12-18T06:22:22;-5.80;99.90
47336;DHT22;33068;51.990;5.926;2022-12-18T06:24:50;-5.90;99.90
47336;DHT22;33068;51.990;5.926;2022-12-18T06:27:17;-5.80;99.90
47336;DHT22;33068;51.990;5.926;2022-12-18T06:29:45;-5.80;99.90
47336;DHT22;33068;51.990;5.926;2022-12-18T06:32:13;-5.90;99.90
47336;DHT22;33068;51.990;5.926;2022-12-18T06:34:40;-5.90;99.90
47336;DHT22;33068;51.990;5.926;2022-12-18T06:37:07;-5.90;99.90
47336;DHT22;33068;51.990;5.926;2022-12-18T06:39:34;-5.90;99.90
47336;DHT22;33068;51.990;5.926;2022-12-18T06:42:01;-5.80;99.90
47336;DHT22;33068;51.990;5.926;2022-12-18T06:44:28;-5.80;99.90
47336;DHT22;33068;51.990;5.926;2022-12-18T06:46:56;-5.70;99.90
47336;DHT22;33068;51.990;5.926;2022-12-18T06:49:23;-5.70;99.90
47336;DHT22;33068;51.990;5.926;2022-12-18T06:51:51;-5.70;99.90
47336;DHT22;33068;51.990;5.926;2022-12-18T06:54:18;-5.70;99.90
47336;DHT22;33068;51.990;5.926;2022-12-18T06:56:45;-5.70;99.90
47336;DHT22;33068;51.990;5.926;2022-12-18T06:59:13;-5.70;99.90
47336;DHT22;33068;51.990;5.926;2022-12-18T07:01:40;-5.70;99.90
47336;DHT22;33068;51.990;5.926;2022-12-18T07:04:09;-5.60;99.90
47336;DHT22;33068;51.990;5.926;2022-12-18T07:06:36;-5.60;99.90
47336;DHT22;33068;51.990;5.926;2022-12-18T07:09:06;-5.50;99.90
47336;DHT22;33068;51.990;5.926;2022-12-18T07:11:33;-5.60;99.90
47336;DHT22;33068;51.990;5.926;2022-12-18T07:14:00;-5.60;99.90
47336;DHT22;33068;51.990;5.926;2022-12-18T07:16:27;-5.50;99.90
47336;DHT22;33068;51.990;5.926;2022-12-18T07:18:55;-5.50;99.90
47336;DHT22;33068;51.990;5.926;2022-12-18T07:21:24;-5.50;99.90
47336;DHT22;33068;51.990;5.926;2022-12-18T07:23:51;-5.60;99.90
47336;DHT22;33068;51.990;5.926;2022-12-18T07:26:20;-5.50;99.90
47336;DHT22;33068;51.990;5.926;2022-12-18T07:28:47;-5.40;99.90
47336;DHT22;33068;51.990;5.926;2022-12-18T07:31:16;-5.30;99.90
47336;DHT22;33068;51.990;5.926;2022-12-18T07:33:44;-5.30;99.90
47336;DHT22;33068;51.990;5.926;2022-12-18T07:36:12;-5.20;99.90
47336;DHT22;33068;51.990;5.926;2022-12-18T07:38:40;-5.10;99.90
47336;DHT22;33068;51.990;5.926;2022-12-18T07:41:10;-5.10;99.90
47336;DHT22;33068;51.990;5.926;2022-12-18T07:43:38;-5.00;99.90
47336;DHT22;33068;51.990;5.926;2022-12-18T07:46:06;-5.00;99.90
47336;DHT22;33068;51.990;5.926;2022-12-18T07:48:33;-5.00;99.90
47336;DHT22;33068;51.990;5.926;2022-12-18T07:51:00;-4.90;99.90
47336;DHT22;33068;51.990;5.926;2022-12-18T07:53:28;-4.90;99.90
47336;DHT22;33068;51.990;5.926;2022-12-18T07:55:58;-4.90;99.90
47336;DHT22;33068;51.990;5.926;2022-12-18T07:58:25;-4.90;99.90
47336;DHT22;33068;51.990;5.926;2022-12-18T08:00:52;-4.80;99.90
47336;DHT22;33068;51.990;5.926;2022-12-18T08:03:19;-4.80;99.90
47336;DHT22;33068;51.990;5.926;2022-12-18T08:05:46;-4.70;99.90
47336;DHT22;33068;51.990;5.926;2022-12-18T08:08:14;-4.70;99.90
47336;DHT22;33068;51.990;5.926;2022-12-18T08:10:41;-4.60;99.90
47336;DHT22;33068;51.990;5.926;2022-12-18T08:13:09;-4.60;99.90
47336;DHT22;33068;51.990;5.926;2022-12-18T08:15:36;-4.60;99.90
47336;DHT22;33068;51.990;5.926;2022-12-18T08:18:03;-4.50;99.90
47336;DHT22;33068;51.990;5.926;2022-12-18T08:20:30;-4.50;99.90
47336;DHT22;33068;51.990;5.926;2022-12-18T08:22:57;-4.50;99.90
47336;DHT22;33068;51.990;5.926;2022-12-18T08:25:24;-4.40;99.90
47336;DHT22;33068;51.990;5.926;2022-12-18T08:27:51;-4.40;99.90
47336;DHT22;33068;51.990;5.926;2022-12-18T08:30:19;-4.40;99.90
47336;DHT22;33068;51.990;5.926;2022-12-18T08:32:47;-4.30;99.90
47336;DHT22;33068;51.990;5.926;2022-12-18T08:35:15;-4.20;99.90
47336;DHT22;33068;51.990;5.926;2022-12-18T08:37:42;-4.20;99.90
47336;DHT22;33068;51.990;5.926;2022-12-18T08:40:09;-4.20;99.90
47336;DHT22;33068;51.990;5.926;2022-12-18T08:42:38;-4.20;99.90
47336;DHT22;33068;51.990;5.926;2022-12-18T08:45:24;-4.20;99.90
47336;DHT22;33068;51.990;5.926;2022-12-18T08:47:51;-4.20;99.90
47336;DHT22;33068;51.990;5.926;2022-12-18T08:50:19;-4.10;99.90
47336;DHT22;33068;51.990;5.926;2022-12-18T08:52:46;-4.10;99.90
47336;DHT22;33068;51.990;5.926;2022-12-18T08:55:13;-4.10;99.90
47336;DHT22;33068;51.990;5.926;2022-12-18T08:57:40;-4.00;99.90
47336;DHT22;33068;51.990;5.926;2022-12-18T09:00:08;-4.00;99.90
47336;DHT22;33068;51.990;5.926;2022-12-18T09:02:37;-4.00;99.90
47336;DHT22;33068;51.990;5.926;2022-12-18T09:05:05;-4.00;99.90
47336;DHT22;33068;51.990;5.926;2022-12-18T09:07:32;-3.90;99.90
47336;DHT22;33068;51.990;5.926;2022-12-18T09:09:59;-3.80;99.90
47336;DHT22;33068;51.990;5.926;2022-12-18T09:12:26;-3.70;99.90
47336;DHT22;33068;51.990;5.926;2022-12-18T09:14:53;-3.60;99.90
47336;DHT22;33068;51.990;5.926;2022-12-18T09:17:20;-3.50;99.90
47336;DHT22;33068;51.990;5.926;2022-12-18T09:19:48;-3.30;99.90
47336;DHT22;33068;51.990;5.926;2022-12-18T09:22:16;-3.30;99.90
47336;DHT22;33068;51.990;5.926;2022-12-18T09:24:43;-3.10;99.90
47336;DHT22;33068;51.990;5.926;2022-12-18T09:27:10;-3.10;99.90
47336;DHT22;33068;51.990;5.926;2022-12-18T09:29:37;-3.00;99.90
47336;DHT22;33068;51.990;5.926;2022-12-18T09:32:04;-2.90;99.90
47336;DHT22;33068;51.990;5.926;2022-12-18T09:34:31;-2.70;99.90
47336;DHT22;33068;51.990;5.926;2022-12-18T09:37:00;-2.60;99.90
47336;DHT22;33068;51.990;5.926;2022-12-18T09:39:27;-2.60;99.90
47336;DHT22;33068;51.990;5.926;2022-12-18T09:41:56;-2.60;99.90
47336;DHT22;33068;51.990;5.926;2022-12-18T09:44:26;-2.50;99.90
47336;DHT22;33068;51.990;5.926;2022-12-18T09:47:05;-2.50;99.90
47336;DHT22;33068;51.990;5.926;2022-12-18T09:49:39;-2.40;99.90
47336;DHT22;33068;51.990;5.926;2022-12-18T09:52:14;-2.40;99.90
47336;DHT22;33068;51.990;5.926;2022-12-18T09:54:44;-2.30;99.90
47336;DHT22;33068;51.990;5.926;2022-12-18T09:57:15;-2.30;99.90
47336;DHT22;33068;51.990;5.926;2022-12-18T09:59:45;-2.20;99.90
47336;DHT22;33068;51.990;5.926;2022-12-18T10:02:15;-2.20;99.90
47336;DHT22;33068;51.990;5.926;2022-12-18T10:04:43;-2.20;99.90
47336;DHT22;33068;51.990;5.926;2022-12-18T10:07:15;-2.20;99.90
47336;DHT22;33068;51.990;5.926;2022-12-18T10:09:52;-2.10;99.90
47336;DHT22;33068;51.990;5.926;2022-12-18T10:12:23;-2.10;99.90
47336;DHT22;33068;51.990;5.926;2022-12-18T10:15:00;-2.10;99.90
47336;DHT22;33068;51.990;5.926;2022-12-18T10:17:36;-2.00;99.90
47336;DHT22;33068;51.990;5.926;2022-12-18T10:20:13;-2.00;99.90
47336;DHT22;33068;51.990;5.926;2022-12-18T10:22:50;-1.90;99.90
47336;DHT22;33068;51.990;5.926;2022-12-18T10:25:23;-1.80;99.90
47336;DHT22;33068;51.990;5.926;2022-12-18T10:27:54;-1.80;99.90
47336;DHT22;33068;51.990;5.926;2022-12-18T10:30:23;-1.80;99.90
47336;DHT22;33068;51.990;5.926;2022-12-18T10:32:51;-1.70;99.90
47336;DHT22;33068;51.990;5.926;2022-12-18T10:35:19;-1.70;99.90
47336;DHT22;33068;51.990;5.926;2022-12-18T10:38:04;-1.60;99.90
47336;DHT22;33068;51.990;5.926;2022-12-18T10:40:33;-1.60;99.90
47336;DHT22;33068;51.990;5.926;2022-12-18T10:43:14;-1.60;99.90
47336;DHT22;33068;51.990;5.926;2022-12-18T10:45:42;-1.50;99.90
47336;DHT22;33068;51.990;5.926;2022-12-18T10:48:19;-1.50;99.90
47336;DHT22;33068;51.990;5.926;2022-12-18T10:50:49;-1.40;99.90
47336;DHT22;33068;51.990;5.926;2022-12-18T10:53:21;-1.40;99.90
47336;DHT22;33068;51.990;5.926;2022-12-18T10:55:49;-1.40;99.90
47336;DHT22;33068;51.990;5.926;2022-12-18T10:58:23;-1.30;99.90
47336;DHT22;33068;51.990;5.926;2022-12-18T11:01:07;-1.30;99.90
47336;DHT22;33068;51.990;5.926;2022-12-18T11:03:35;-1.30;99.90
47336;DHT22;33068;51.990;5.926;2022-12-18T11:06:05;-1.10;99.90
47336;DHT22;33068;51.990;5.926;2022-12-18T11:08:35;-1.20;99.90
47336;DHT22;33068;51.990;5.926;2022-12-18T11:11:02;-1.10;99.90
47336;DHT22;33068;51.990;5.926;2022-12-18T11:13:30;-0.90;99.90
47336;DHT22;33068;51.990;5.926;2022-12-18T11:15:58;-1.10;99.90
47336;DHT22;33068;51.990;5.926;2022-12-18T11:18:28;-0.70;99.90
47336;DHT22;33068;51.990;5.926;2022-12-18T11:20:58;-1.00;99.90
47336;DHT22;33068;51.990;5.926;2022-12-18T11:23:27;-0.90;99.90
47336;DHT22;33068;51.990;5.926;2022-12-18T11:25:57;-0.90;99.90
47336;DHT22;33068;51.990;5.926;2022-12-18T11:28:28;-0.90;99.90
47336;DHT22;33068;51.990;5.926;2022-12-18T11:31:21;-0.80;99.90
47336;DHT22;33068;51.990;5.926;2022-12-18T11:33:58;-0.80;99.90
47336;DHT22;33068;51.990;5.926;2022-12-18T11:36:29;-0.80;99.90
47336;DHT22;33068;51.990;5.926;2022-12-18T11:39:00;-0.70;99.90
47336;DHT22;33068;51.990;5.926;2022-12-18T11:41:36;-0.60;99.90
47336;DHT22;33068;51.990;5.926;2022-12-18T11:44:26;-0.60;99.90
47336;DHT22;33068;51.990;5.926;2022-12-18T11:47:00;-0.60;99.90
47336;DHT22;33068;51.990;5.926;2022-12-18T11:49:32;-0.50;99.90
47336;DHT22;33068;51.990;5.926;2022-12-18T11:52:04;-0.50;99.90
47336;DHT22;33068;51.990;5.926;2022-12-18T11:54:32;-0.20;99.90
47336;DHT22;33068;51.990;5.926;2022-12-18T11:57:07;-0.40;99.90
47336;DHT22;33068;51.990;5.926;2022-12-18T11:59:43;-0.40;99.90
47336;DHT22;33068;51.990;5.926;2022-12-18T12:02:27;-0.40;99.90
47336;DHT22;33068;51.990;5.926;2022-12-18T12:05:05;-0.10;99.90
47336;DHT22;33068;51.990;5.926;2022-12-18T12:07:47;-0.30;99.90
47336;DHT22;33068;51.990;5.926;2022-12-18T12:10:26;-0.30;99.90
47336;DHT22;33068;51.990;5.926;2022-12-18T12:13:16;-0.30;99.90
47336;DHT22;33068;51.990;5.926;2022-12-18T12:15:57;-0.30;99.90
47336;DHT22;33068;51.990;5.926;2022-12-18T12:18:37;-0.20;99.90
47336;DHT22;33068;51.990;5.926;2022-12-18T12:21:15;-0.60;99.90
47336;DHT22;33068;51.990;5.926;2022-12-18T12:23:50;-0.20;99.90
47336;DHT22;33068;51.990;5.926;2022-12-18T12:26:27;-0.20;99.90
47336;DHT22;33068;51.990;5.926;2022-12-18T12:29:04;-0.20;99.90
47336;DHT22;33068;51.990;5.926;2022-12-18T12:31:59;0.00;99.90
47336;DHT22;33068;51.990;5.926;2022-12-18T12:34:33;-0.10;99.90
47336;DHT22;33068;51.990;5.926;2022-12-18T12:37:19;-0.10;99.90
47336;DHT22;33068;51.990;5.926;2022-12-18T12:39:48;0.00;99.90
47336;DHT22;33068;51.990;5.926;2022-12-18T12:42:20;-0.10;99.90
47336;DHT22;33068;51.990;5.926;2022-12-18T12:45:18;-0.10;99.90
47336;DHT22;33068;51.990;5.926;2022-12-18T12:47:48;-0.10;99.90
47336;DHT22;33068;51.990;5.926;2022-12-18T12:50:19;-0.10;99.90
47336;DHT22;33068;51.990;5.926;2022-12-18T12:52:50;-0.10;99.90
47336;DHT22;33068;51.990;5.926;2022-12-18T12:55:21;-0.10;99.90
47336;DHT22;33068;51.990;5.926;2022-12-18T12:57:57;0.00;99.90
47336;DHT22;33068;51.990;5.926;2022-12-18T13:00:25;0.00;99.90
47336;DHT22;33068;51.990;5.926;2022-12-18T13:03:01;-0.10;99.90
47336;DHT22;33068;51.990;5.926;2022-12-18T13:05:38;0.10;99.90
47336;DHT22;33068;51.990;5.926;2022-12-18T13:08:08;0.10;99.90
47336;DHT22;33068;51.990;5.926;2022-12-18T13:10:36;0.00;99.90
47336;DHT22;33068;51.990;5.926;2022-12-18T13:13:05;0.00;99.90
47336;DHT22;33068;51.990;5.926;2022-12-18T13:15:37;0.10;99.90
47336;DHT22;33068;51.990;5.926;2022-12-18T13:18:20;0.00;99.90
47336;DHT22;33068;51.990;5.926;2022-12-18T13:20:50;0.00;99.90
47336;DHT22;33068;51.990;5.926;2022-12-18T13:23:34;0.10;99.90
47336;DHT22;33068;51.990;5.926;2022-12-18T13:26:31;0.10;99.90
47336;DHT22;33068;51.990;5.926;2022-12-18T13:29:00;0.00;99.90
47336;DHT22;33068;51.990;5.926;2022-12-18T13:34:35;0.10;99.90
47336;DHT22;33068;51.990;5.926;2022-12-18T13:37:39;0.10;99.90
47336;DHT22;33068;51.990;5.926;2022-12-18T13:43:24;0.10;99.90
47336;DHT22;33068;51.990;5.926;2022-12-18T13:46:18;0.10;99.90
47336;DHT22;33068;51.990;5.926;2022-12-18T13:49:00;0.10;99.90
47336;DHT22;33068;51.990;5.926;2022-12-18T13:51:32;0.10;99.90
47336;DHT22;33068;51.990;5.926;2022-12-18T13:54:01;0.10;99.90
47336;DHT22;33068;51.990;5.926;2022-12-18T13:56:31;0.10;99.90
47336;DHT22;33068;51.990;5.926;2022-12-18T13:59:20;0.10;99.90
47336;DHT22;33068;51.990;5.926;2022-12-18T14:01:51;0.20;99.90
47336;DHT22;33068;51.990;5.926;2022-12-18T14:04:25;0.10;99.90
47336;DHT22;33068;51.990;5.926;2022-12-18T14:06:57;0.10;99.90
47336;DHT22;33068;51.990;5.926;2022-12-18T14:09:30;0.10;99.90
47336;DHT22;33068;51.990;5.926;2022-12-18T14:12:00;0.10;99.90
47336;DHT22;33068;51.990;5.926;2022-12-18T14:14:46;0.10;99.90
47336;DHT22;33068;51.990;5.926;2022-12-18T14:17:15;0.10;99.90
47336;DHT22;33068;51.990;5.926;2022-12-18T14:19:43;0.10;99.90
47336;DHT22;33068;51.990;5.926;2022-12-18T14:22:17;0.10;99.90
47336;DHT22;33068;51.990;5.926;2022-12-18T14:24:45;0.10;99.90
47336;DHT22;33068;51.990;5.926;2022-12-18T14:27:21;0.10;99.90
47336;DHT22;33068;51.990;5.926;2022-12-18T14:29:49;0.10;99.90
47336;DHT22;33068;51.990;5.926;2022-12-18T14:32:24;0.10;99.90
47336;DHT22;33068;51.990;5.926;2022-12-18T14:34:53;0.20;99.90
47336;DHT22;33068;51.990;5.926;2022-12-18T14:37:24;0.40;99.90
47336;DHT22;33068;51.990;5.926;2022-12-18T14:39:57;0.10;99.90
47336;DHT22;33068;51.990;5.926;2022-12-18T14:42:25;0.10;99.90
47336;DHT22;33068;51.990;5.926;2022-12-18T14:47:59;0.10;99.90
47336;DHT22;33068;51.990;5.926;2022-12-18T14:50:26;0.30;99.90
47336;DHT22;33068;51.990;5.926;2022-12-18T14:52:55;0.10;99.90
47336;DHT22;33068;51.990;5.926;2022-12-18T14:55:22;0.10;99.90
47336;DHT22;33068;51.990;5.926;2022-12-18T14:57:50;0.10;99.90
47336;DHT22;33068;51.990;5.926;2022-12-18T15:00:21;0.10;99.90
47336;DHT22;33068;51.990;5.926;2022-12-18T15:02:51;0.10;99.90
47336;DHT22;33068;51.990;5.926;2022-12-18T15:05:21;0.10;99.90
47336;DHT22;33068;51.990;5.926;2022-12-18T15:07:55;0.00;99.90
47336;DHT22;33068;51.990;5.926;2022-12-18T15:10:24;0.00;99.90
47336;DHT22;33068;51.990;5.926;2022-12-18T15:13:07;0.00;99.90
47336;DHT22;33068;51.990;5.926;2022-12-18T15:15:47;0.00;99.90
47336;DHT22;33068;51.990;5.926;2022-12-18T15:18:16;0.00;99.90
47336;DHT22;33068;51.990;5.926;2022-12-18T15:20:48;0.00;99.90
47336;DHT22;33068;51.990;5.926;2022-12-18T15:23:19;0.00;99.90
47336;DHT22;33068;51.990;5.926;2022-12-18T15:25:54;0.00;99.90
47336;DHT22;33068;51.990;5.926;2022-12-18T15:28:24;-0.10;99.90
47336;DHT22;33068;51.990;5.926;2022-12-18T15:31:03;-0.10;99.90
47336;DHT22;33068;51.990;5.926;2022-12-18T15:33:33;-0.10;99.90
47336;DHT22;33068;51.990;5.926;2022-12-18T15:36:08;-0.10;99.90
47336;DHT22;33068;51.990;5.926;2022-12-18T15:38:37;-0.10;99.90
47336;DHT22;33068;51.990;5.926;2022-12-18T15:41:04;0.00;99.90
47336;DHT22;33068;51.990;5.926;2022-12-18T15:43:32;-0.10;99.90
47336;DHT22;33068;51.990;5.926;2022-12-18T15:46:02;0.00;99.90
47336;DHT22;33068;51.990;5.926;2022-12-18T15:48:30;0.00;99.90
47336;DHT22;33068;51.990;5.926;2022-12-18T15:50:58;-0.10;99.90
47336;DHT22;33068;51.990;5.926;2022-12-18T15:53:29;-0.10;99.90
47336;DHT22;33068;51.990;5.926;2022-12-18T15:55:59;-0.10;99.90
47336;DHT22;33068;51.990;5.926;2022-12-18T15:58:43;0.00;99.90
47336;DHT22;33068;51.990;5.926;2022-12-18T16:01:11;0.00;99.90
47336;DHT22;33068;51.990;5.926;2022-12-18T16:03:38;-0.10;99.90
47336;DHT22;33068;51.990;5.926;2022-12-18T16:06:06;-0.10;99.90